createdAt,value
2022-10-23T00:01:18.491Z,8.30
2022-10-23T00:03:46.606Z,8.30
2022-10-23T00:06:16.064Z,8.30
2022-10-23T00:08:43.397Z,8.30
2022-10-23T00:11:12.680Z,8.30
2022-10-23T00:13:39.699Z,8.30
2022-10-23T00:16:07.435Z,8.30
2022-10-23T00:18:34.957Z,8.30
2022-10-23T00:21:02.833Z,8.30
2022-10-23T00:23:29.693Z,8.30
2022-10-23T00:25:56.485Z,8.30
2022-10-23T00:28:23.408Z,8.20
2022-10-23T00:30:50.272Z,8.30
2022-10-23T00:33:17.070Z,8.30
2022-10-23T00:35:44.233Z,8.30
2022-10-23T00:38:11.736Z,8.30
2022-10-23T00:40:39.621Z,8.40
2022-10-23T00:43:07.570Z,8.40
2022-10-23T00:45:34.517Z,8.30
2022-10-23T00:48:02.729Z,8.40
2022-10-23T00:50:32.645Z,8.40
2022-10-23T00:53:03.237Z,8.40
2022-10-23T00:55:32.473Z,8.40
2022-10-23T00:57:59.727Z,8.40
2022-10-23T01:00:41.433Z,8.40
2022-10-23T01:03:08.366Z,8.40
2022-10-23T01:05:53.486Z,8.40
2022-10-23T01:08:40.003Z,8.40
2022-10-23T01:11:13.280Z,8.40
2022-10-23T01:14:10.292Z,8.30
2022-10-23T01:16:45.157Z,8.30
2022-10-23T01:19:17.132Z,8.40
2022-10-23T01:22:00.438Z,8.40
2022-10-23T01:24:56.048Z,8.30
2022-10-23T01:27:31.048Z,8.30
2022-10-23T01:30:06.692Z,8.20
2022-10-23T01:32:44.496Z,8.20
2022-10-23T01:35:38.018Z,8.10
2022-10-23T01:38:23.527Z,8.10
2022-10-23T01:40:53.127Z,8.10
2022-10-23T01:43:25.866Z,8.10
2022-10-23T01:46:06.674Z,8.10
2022-10-23T01:48:35.816Z,8.10
2022-10-23T01:51:07.806Z,8.10
2022-10-23T01:53:41.268Z,8.10
2022-10-23T01:56:12.677Z,8.00
2022-10-23T01:58:44.129Z,8.00
2022-10-23T02:01:12.542Z,8.00
2022-10-23T02:03:41.326Z,8.00
2022-10-23T02:06:08.392Z,8.00
2022-10-23T02:08:35.600Z,8.10
2022-10-23T02:11:12.857Z,8.00
2022-10-23T02:13:45.759Z,8.00
2022-10-23T02:16:27.358Z,8.00
2022-10-23T02:19:11.213Z,8.10
2022-10-23T02:21:48.788Z,8.00
2022-10-23T02:24:20.486Z,8.00
2022-10-23T02:26:51.676Z,8.00
2022-10-23T02:29:24.561Z,8.00
2022-10-23T02:31:51.495Z,8.00
2022-10-23T02:34:19.225Z,8.00
2022-10-23T02:36:46.298Z,8.00
2022-10-23T02:39:13.222Z,8.00
2022-10-23T02:41:51.265Z,8.00
2022-10-23T02:44:38.273Z,8.00
2022-10-23T02:47:35.147Z,8.00
2022-10-23T02:50:38.440Z,8.00
2022-10-23T02:53:35.498Z,8.00
2022-10-23T02:56:25.509Z,8.00
2022-10-23T02:59:16.829Z,8.10
2022-10-23T03:01:54.351Z,8.10
2022-10-23T03:04:24.527Z,8.10
2022-10-23T03:06:52.097Z,8.10
2022-10-23T03:09:19.498Z,8.10
2022-10-23T03:11:46.530Z,8.10
2022-10-23T03:14:14.027Z,8.10
2022-10-23T03:16:40.830Z,8.10
2022-10-23T03:19:07.709Z,8.20
2022-10-23T03:21:34.647Z,8.20
2022-10-23T03:24:01.494Z,8.20
2022-10-23T03:26:28.334Z,8.20
2022-10-23T03:28:55.209Z,8.20
2022-10-23T03:31:22.079Z,8.20
2022-10-23T03:33:48.933Z,8.30
2022-10-23T03:36:15.769Z,8.30
2022-10-23T03:38:42.558Z,8.30
2022-10-23T03:41:09.368Z,8.30
2022-10-23T03:43:36.185Z,8.30
2022-10-23T03:46:03.197Z,8.30
2022-10-23T03:48:30.060Z,8.30
2022-10-23T03:50:56.843Z,8.30
2022-10-23T03:53:23.641Z,8.20
2022-10-23T03:55:50.426Z,8.20
2022-10-23T03:58:17.451Z,8.20
2022-10-23T04:00:44.298Z,8.30
2022-10-23T04:03:11.133Z,8.30
2022-10-23T04:05:39.139Z,8.30
2022-10-23T04:08:05.988Z,8.30
2022-10-23T04:10:32.823Z,8.30
2022-10-23T04:12:59.702Z,8.30
2022-10-23T04:15:26.534Z,8.30
2022-10-23T04:17:53.385Z,8.40
2022-10-23T04:20:20.381Z,8.30
2022-10-23T04:22:47.205Z,8.30
2022-10-23T04:25:14.169Z,8.40
2022-10-23T04:27:41.282Z,8.40
2022-10-23T04:30:09.386Z,8.40
2022-10-23T04:32:36.217Z,8.40
2022-10-23T04:35:03.265Z,8.40
2022-10-23T04:37:30.119Z,8.40
2022-10-23T04:39:56.955Z,8.40
2022-10-23T04:42:24.077Z,8.40
2022-10-23T04:44:50.919Z,8.40
2022-10-23T04:47:17.792Z,8.40
2022-10-23T04:49:44.613Z,8.40
2022-10-23T04:52:11.463Z,8.40
2022-10-23T04:54:39.140Z,8.50
2022-10-23T04:57:05.969Z,8.50
2022-10-23T04:59:32.939Z,8.50
2022-10-23T05:01:59.793Z,8.50
2022-10-23T05:04:26.720Z,8.40
2022-10-23T05:06:53.631Z,8.40
2022-10-23T05:09:22.229Z,8.50
2022-10-23T05:11:49.335Z,8.50
2022-10-23T05:14:20.555Z,8.50
2022-10-23T05:17:08.444Z,8.50
2022-10-23T05:19:40.868Z,8.50
2022-10-23T05:22:09.105Z,8.60
2022-10-23T05:24:36.004Z,8.60
2022-10-23T05:27:02.830Z,8.60
2022-10-23T05:29:29.944Z,8.60
2022-10-23T05:32:02.849Z,8.60
2022-10-23T05:34:31.919Z,8.50
2022-10-23T05:36:58.891Z,8.60
2022-10-23T05:39:25.820Z,8.60
2022-10-23T05:41:52.792Z,8.60
2022-10-23T05:44:19.592Z,8.60
2022-10-23T05:46:46.562Z,8.60
2022-10-23T05:49:13.355Z,8.70
2022-10-23T05:51:41.234Z,8.70
2022-10-23T05:54:08.684Z,8.70
2022-10-23T05:56:36.895Z,8.70
2022-10-23T05:59:04.499Z,8.70
2022-10-23T06:01:31.487Z,8.70
2022-10-23T06:04:00.264Z,8.80
2022-10-23T06:06:27.287Z,8.80
2022-10-23T06:08:54.706Z,8.80
2022-10-23T06:11:21.581Z,8.80
2022-10-23T06:13:48.628Z,8.80
2022-10-23T06:16:21.087Z,8.80
2022-10-23T06:18:48.464Z,8.80
2022-10-23T06:21:16.414Z,8.80
2022-10-23T06:23:45.003Z,8.90
2022-10-23T06:26:14.420Z,8.90
2022-10-23T06:28:41.615Z,8.90
2022-10-23T06:31:11.585Z,8.90
2022-10-23T06:33:38.728Z,9.00
2022-10-23T06:36:08.287Z,9.00
2022-10-23T06:38:37.293Z,9.00
2022-10-23T06:41:05.053Z,9.10
2022-10-23T06:43:31.834Z,9.00
2022-10-23T06:46:02.779Z,9.00
2022-10-23T06:48:29.906Z,9.10
2022-10-23T06:50:56.756Z,9.10
2022-10-23T06:53:24.957Z,9.10
2022-10-23T06:55:55.319Z,9.10
2022-10-23T06:58:22.574Z,9.10
2022-10-23T07:00:49.417Z,9.10
2022-10-23T07:03:16.285Z,9.20
2022-10-23T07:05:44.913Z,9.20
2022-10-23T07:08:11.723Z,9.20
2022-10-23T07:10:38.707Z,9.20
2022-10-23T07:13:05.546Z,9.30
2022-10-23T07:15:32.414Z,9.30
2022-10-23T07:17:59.290Z,9.30
2022-10-23T07:20:26.484Z,9.30
2022-10-23T07:22:54.881Z,9.40
2022-10-23T07:25:23.177Z,9.40
2022-10-23T07:27:50.306Z,9.40
2022-10-23T07:30:17.277Z,9.40
2022-10-23T07:32:44.868Z,9.50
2022-10-23T07:37:40.230Z,9.60
2022-10-23T07:40:08.328Z,9.60
2022-10-23T07:42:35.652Z,9.70
2022-10-23T07:45:04.459Z,9.70
2022-10-23T07:47:32.635Z,9.90
2022-10-23T07:49:59.713Z,9.90
2022-10-23T07:52:28.781Z,9.90
2022-10-23T07:54:57.533Z,10.00
2022-10-23T07:57:24.357Z,10.10
2022-10-23T07:59:51.181Z,10.10
2022-10-23T08:02:18.210Z,10.20
2022-10-23T08:04:45.073Z,10.20
2022-10-23T08:07:11.930Z,10.40
2022-10-23T08:09:38.852Z,10.40
2022-10-23T08:12:06.058Z,10.60
2022-10-23T08:14:32.886Z,10.60
2022-10-23T08:16:59.756Z,10.50
2022-10-23T08:19:26.621Z,10.50
2022-10-23T08:21:57.343Z,10.50
2022-10-23T08:24:24.262Z,10.50
2022-10-23T08:26:51.196Z,10.60
2022-10-23T08:29:18.151Z,10.60
2022-10-23T08:31:45.003Z,10.60
2022-10-23T08:34:11.911Z,10.70
2022-10-23T08:36:39.420Z,11.00
2022-10-23T08:39:07.328Z,11.00
2022-10-23T08:41:44.179Z,10.90
2022-10-23T08:44:23.415Z,10.90
2022-10-23T08:46:59.325Z,10.90
2022-10-23T08:49:43.392Z,11.00
2022-10-23T08:52:28.079Z,11.00
2022-10-23T08:55:16.534Z,11.00
2022-10-23T08:58:07.492Z,11.00
2022-10-23T09:00:34.986Z,11.10
2022-10-23T09:03:04.547Z,11.10
2022-10-23T09:06:21.512Z,11.20
2022-10-23T09:09:03.358Z,11.20
2022-10-23T09:11:48.358Z,11.30
2022-10-23T09:14:42.504Z,11.30
2022-10-23T09:17:21.281Z,11.10
2022-10-23T09:19:54.327Z,11.00
2022-10-23T09:22:21.152Z,11.00
2022-10-23T09:24:52.981Z,11.20
2022-10-23T09:27:21.154Z,11.10
2022-10-23T09:29:55.544Z,11.20
2022-10-23T09:32:48.403Z,11.30
2022-10-23T09:35:26.552Z,11.20
2022-10-23T09:37:53.788Z,11.20
2022-10-23T09:40:42.132Z,11.30
2022-10-23T09:43:17.732Z,11.20
2022-10-23T09:45:55.639Z,11.10
2022-10-23T09:48:22.498Z,11.10
2022-10-23T09:50:54.599Z,11.20
2022-10-23T09:53:48.881Z,11.30
2022-10-23T09:56:30.479Z,11.30
2022-10-23T09:59:01.435Z,11.10
2022-10-23T10:01:45.475Z,11.10
2022-10-23T10:04:12.347Z,11.10
2022-10-23T10:06:39.248Z,11.10
2022-10-23T10:09:11.609Z,11.10
2022-10-23T10:11:47.708Z,11.10
2022-10-23T10:14:39.181Z,11.20
2022-10-23T10:17:16.181Z,11.20
2022-10-23T10:20:06.904Z,11.40
2022-10-23T10:22:56.465Z,11.30
2022-10-23T10:25:34.281Z,11.30
2022-10-23T10:28:33.528Z,11.50
2022-10-23T10:31:10.507Z,11.50
2022-10-23T10:33:52.639Z,11.40
2022-10-23T10:36:22.590Z,11.30
2022-10-23T10:38:53.585Z,11.20
2022-10-23T10:41:48.758Z,11.20
2022-10-23T10:44:53.430Z,11.20
2022-10-23T10:47:33.380Z,11.20
2022-10-23T10:50:28.693Z,11.20
2022-10-23T10:53:14.080Z,11.30
2022-10-23T10:55:46.918Z,11.20
2022-10-23T10:58:25.936Z,11.20
2022-10-23T11:01:03.299Z,11.30
2022-10-23T11:04:12.747Z,11.40
2022-10-23T11:06:41.626Z,11.30
2022-10-23T11:09:20.898Z,11.30
2022-10-23T11:11:49.352Z,11.20
2022-10-23T11:14:22.716Z,11.20
2022-10-23T11:17:09.745Z,11.20
2022-10-23T11:19:40.468Z,11.20
2022-10-23T11:22:30.459Z,11.30
2022-10-23T11:25:15.701Z,11.20
2022-10-23T11:27:54.596Z,11.10
2022-10-23T11:30:45.354Z,11.00
2022-10-23T11:33:47.411Z,10.90
2022-10-23T11:36:21.110Z,10.80
2022-10-23T11:38:53.090Z,10.80
2022-10-23T11:41:34.128Z,10.80
2022-10-23T11:44:04.141Z,10.80
2022-10-23T11:46:35.795Z,10.80
2022-10-23T11:49:06.055Z,10.70
2022-10-23T11:51:38.252Z,10.70
2022-10-23T11:54:24.371Z,10.80
2022-10-23T11:57:10.615Z,10.80
2022-10-23T11:59:49.381Z,10.70
2022-10-23T12:02:32.199Z,10.80
2022-10-23T12:05:04.673Z,10.70
2022-10-23T12:07:35.920Z,10.80
2022-10-23T12:10:05.260Z,10.90
2022-10-23T12:12:40.683Z,10.80
2022-10-23T12:15:15.900Z,10.70
2022-10-23T12:17:43.998Z,10.60
2022-10-23T12:20:11.294Z,10.60
2022-10-23T12:23:02.992Z,10.80
2022-10-23T12:25:58.363Z,10.70
2022-10-23T12:29:05.501Z,10.70
2022-10-23T12:31:50.822Z,10.70
2022-10-23T12:34:34.556Z,10.80
2022-10-23T12:37:22.823Z,11.00
2022-10-23T12:39:55.243Z,10.70
2022-10-23T12:42:28.457Z,10.70
2022-10-23T12:45:41.876Z,10.70
2022-10-23T12:48:20.507Z,10.80
2022-10-23T12:50:55.891Z,10.70
2022-10-23T12:53:24.202Z,10.70
2022-10-23T12:58:32.104Z,10.90
2022-10-23T13:01:05.576Z,10.90
2022-10-23T13:03:34.161Z,11.00
2022-10-23T13:06:03.140Z,10.80
2022-10-23T13:08:39.112Z,10.70
2022-10-23T13:11:06.817Z,10.80
2022-10-23T13:13:33.689Z,10.80
2022-10-23T13:16:00.483Z,10.80
2022-10-23T13:18:27.316Z,10.70
2022-10-23T13:20:54.116Z,10.90
2022-10-23T13:23:33.201Z,10.80
2022-10-23T13:26:23.416Z,10.90
2022-10-23T13:28:50.758Z,10.80
2022-10-23T13:31:17.492Z,10.80
2022-10-23T13:33:47.106Z,10.70
2022-10-23T13:36:13.906Z,10.70
2022-10-23T13:39:02.247Z,10.70
2022-10-23T13:41:36.860Z,10.70
2022-10-23T13:44:03.845Z,10.80
2022-10-23T13:46:30.741Z,10.80
2022-10-23T13:48:57.600Z,10.70
2022-10-23T13:51:27.686Z,10.60
2022-10-23T13:53:55.830Z,10.70
2022-10-23T13:56:24.246Z,10.80
2022-10-23T13:58:51.190Z,10.60
2022-10-23T14:01:22.497Z,10.60
2022-10-23T14:03:51.177Z,10.40
2022-10-23T14:06:18.113Z,10.40
2022-10-23T14:08:45.585Z,10.40
2022-10-23T14:13:47.980Z,10.40
2022-10-23T14:16:17.382Z,10.30
2022-10-23T14:18:44.717Z,10.30
2022-10-23T14:21:14.531Z,10.40
2022-10-23T14:23:41.362Z,10.60
2022-10-23T14:26:11.156Z,10.40
2022-10-23T14:28:38.236Z,10.30
2022-10-23T14:31:16.795Z,10.20
2022-10-23T14:33:44.846Z,10.20
2022-10-23T14:36:13.007Z,10.20
2022-10-23T14:38:40.024Z,10.20
2022-10-23T14:41:11.738Z,10.20
2022-10-23T14:43:38.521Z,10.20
2022-10-23T14:46:16.431Z,10.20
2022-10-23T14:48:46.125Z,10.40
2022-10-23T14:51:20.977Z,10.30
2022-10-23T14:53:48.599Z,10.20
2022-10-23T14:56:16.024Z,10.20
2022-10-23T14:58:43.361Z,10.20
2022-10-23T15:01:10.829Z,10.20
2022-10-23T15:03:37.798Z,10.20
2022-10-23T15:06:07.055Z,10.20
2022-10-23T15:08:34.575Z,10.20
2022-10-23T15:11:02.833Z,10.20
2022-10-23T15:13:29.845Z,10.20
2022-10-23T15:16:05.729Z,10.20
2022-10-23T15:18:32.618Z,10.20
2022-10-23T15:21:00.213Z,10.20
2022-10-23T15:23:27.095Z,10.30
2022-10-23T15:26:02.092Z,10.30
2022-10-23T15:28:30.036Z,10.10
2022-10-23T15:30:57.013Z,10.10
2022-10-23T15:33:24.049Z,10.10
2022-10-23T15:35:52.188Z,10.10
2022-10-23T15:38:19.381Z,10.10
2022-10-23T15:40:47.288Z,10.10
2022-10-23T15:43:15.271Z,10.10
2022-10-23T15:45:43.070Z,10.10
2022-10-23T15:48:09.942Z,10.10
2022-10-23T15:50:37.219Z,10.10
2022-10-23T15:53:04.682Z,10.10
2022-10-23T15:55:31.614Z,10.10
2022-10-23T15:58:04.081Z,10.10
2022-10-23T16:00:31.126Z,10.10
2022-10-23T16:02:58.353Z,10.10
2022-10-23T16:05:25.166Z,10.10
2022-10-23T16:07:51.987Z,10.00
2022-10-23T16:10:19.092Z,10.00
2022-10-23T16:12:46.183Z,10.00
2022-10-23T16:15:13.115Z,10.10
2022-10-23T16:17:40.122Z,10.00
2022-10-23T16:20:07.712Z,10.10
2022-10-23T16:22:34.566Z,10.10
2022-10-23T16:25:01.554Z,10.10
2022-10-23T16:27:28.475Z,10.10
2022-10-23T16:29:55.311Z,10.10
2022-10-23T16:32:22.210Z,10.10
2022-10-23T16:34:49.026Z,10.00
2022-10-23T16:37:15.923Z,10.10
2022-10-23T16:39:42.738Z,10.10
2022-10-23T16:42:09.594Z,10.10
2022-10-23T16:44:36.471Z,10.10
2022-10-23T16:47:03.275Z,10.10
2022-10-23T16:49:32.201Z,10.10
2022-10-23T16:51:59.230Z,10.10
2022-10-23T16:54:26.098Z,10.10
2022-10-23T16:56:53.018Z,10.10
2022-10-23T16:59:19.831Z,10.10
2022-10-23T17:01:46.811Z,10.10
2022-10-23T17:04:13.734Z,10.20
2022-10-23T17:06:41.213Z,10.10
2022-10-23T17:09:08.294Z,10.10
2022-10-23T17:11:38.204Z,10.10
2022-10-23T17:14:17.628Z,10.20
2022-10-23T17:16:48.093Z,10.10
2022-10-23T17:19:33.126Z,10.10
2022-10-23T17:22:04.161Z,10.10
2022-10-23T17:24:30.956Z,10.10
2022-10-23T17:26:57.859Z,10.10
2022-10-23T17:29:24.906Z,10.20
2022-10-23T17:31:52.135Z,10.20
2022-10-23T17:34:22.114Z,10.10
2022-10-23T17:36:52.202Z,10.00
2022-10-23T17:39:22.406Z,9.90
2022-10-23T17:41:49.258Z,10.00
2022-10-23T17:44:16.246Z,10.10
2022-10-23T17:46:43.476Z,10.00
2022-10-23T17:49:11.251Z,10.10
2022-10-23T17:51:38.212Z,10.10
2022-10-23T17:54:11.425Z,10.00
2022-10-23T17:56:38.850Z,10.10
2022-10-23T17:59:09.565Z,10.10
2022-10-23T18:01:36.916Z,10.00
2022-10-23T18:04:06.382Z,10.00
2022-10-23T18:06:36.602Z,10.10
2022-10-23T18:09:05.237Z,10.10
2022-10-23T18:11:37.739Z,10.00
2022-10-23T18:14:06.473Z,9.90
2022-10-23T18:16:34.884Z,9.90
2022-10-23T18:19:02.656Z,10.00
2022-10-23T18:21:29.697Z,10.00
2022-10-23T18:23:59.171Z,10.00
2022-10-23T18:26:28.775Z,10.00
2022-10-23T18:28:58.245Z,10.00
2022-10-23T18:31:27.760Z,10.00
2022-10-23T18:34:07.668Z,9.90
2022-10-23T18:36:38.413Z,10.00
2022-10-23T18:39:07.435Z,10.00
2022-10-23T18:41:37.392Z,10.00
2022-10-23T18:44:04.807Z,10.00
2022-10-23T18:46:32.228Z,10.00
2022-10-23T18:48:59.657Z,10.00
2022-10-23T18:51:29.324Z,10.00
2022-10-23T18:53:57.256Z,9.90
2022-10-23T18:56:26.754Z,9.90
2022-10-23T18:59:01.999Z,9.80
2022-10-23T19:01:30.072Z,9.80
2022-10-23T19:03:58.574Z,9.80
2022-10-23T19:06:25.813Z,9.80
2022-10-23T19:08:52.986Z,9.70
2022-10-23T19:11:21.814Z,9.80
2022-10-23T19:13:48.701Z,9.80
2022-10-23T19:16:41.628Z,9.80
2022-10-23T19:19:21.561Z,9.80
2022-10-23T19:21:49.885Z,9.90
2022-10-23T19:24:24.152Z,9.90
2022-10-23T19:26:51.169Z,9.90
2022-10-23T19:29:20.632Z,9.90
2022-10-23T19:31:49.351Z,9.90
2022-10-23T19:34:20.045Z,9.80
2022-10-23T19:36:48.167Z,9.80
2022-10-23T19:39:15.386Z,9.90
2022-10-23T19:41:42.235Z,9.90
2022-10-23T19:44:09.261Z,9.90
2022-10-23T19:46:36.997Z,10.00
2022-10-23T19:49:05.196Z,9.90
2022-10-23T19:51:32.695Z,10.00
2022-10-23T19:53:59.745Z,9.90
2022-10-23T19:56:26.966Z,10.00
2022-10-23T19:58:53.835Z,10.00
2022-10-23T20:01:24.131Z,9.80
2022-10-23T20:03:51.751Z,9.70
2022-10-23T20:06:22.251Z,9.70
2022-10-23T20:08:49.105Z,9.60
2022-10-23T20:11:28.514Z,9.80
2022-10-23T20:13:56.203Z,9.90
2022-10-23T20:16:31.382Z,9.70
2022-10-23T20:19:00.829Z,9.70
2022-10-23T20:21:27.681Z,9.60
2022-10-23T20:23:57.097Z,9.70
2022-10-23T20:26:24.228Z,9.80
2022-10-23T20:28:56.021Z,9.70
2022-10-23T20:31:26.018Z,9.80
2022-10-23T20:33:53.055Z,9.70
2022-10-23T20:36:30.245Z,9.70
2022-10-23T20:38:58.673Z,9.70
2022-10-23T20:41:27.188Z,9.70
2022-10-23T20:43:55.881Z,9.70
2022-10-23T20:46:25.431Z,9.60
2022-10-23T20:48:52.915Z,9.60
2022-10-23T20:51:21.508Z,9.70
2022-10-23T20:53:48.802Z,9.70
2022-10-23T20:56:19.279Z,9.80
2022-10-23T20:58:46.349Z,9.80
2022-10-23T21:01:19.175Z,9.70
2022-10-23T21:03:51.153Z,9.70
2022-10-23T21:06:19.237Z,9.60
2022-10-23T21:08:46.119Z,9.70
2022-10-23T21:11:15.096Z,9.70
2022-10-23T21:13:43.779Z,9.80
2022-10-23T21:16:13.806Z,9.70
2022-10-23T21:18:45.927Z,9.70
2022-10-23T21:21:14.959Z,9.70
2022-10-23T21:23:41.835Z,9.70
2022-10-23T21:26:08.768Z,9.80
2022-10-23T21:28:35.922Z,9.80
2022-10-23T21:31:07.991Z,9.80
2022-10-23T21:33:36.448Z,9.70
2022-10-23T21:36:18.988Z,9.60
2022-10-23T21:38:47.848Z,9.70
2022-10-23T21:41:23.316Z,9.60
2022-10-23T21:43:54.467Z,9.60
2022-10-23T21:46:22.460Z,9.60
2022-10-23T21:48:49.630Z,9.60
2022-10-23T21:51:37.292Z,9.50
2022-10-23T21:54:06.431Z,9.60
2022-10-23T21:56:49.447Z,9.60
2022-10-23T21:59:19.779Z,9.60
2022-10-23T22:01:48.120Z,9.60
2022-10-23T22:04:17.429Z,9.60
2022-10-23T22:06:46.300Z,9.60
2022-10-23T22:09:16.670Z,9.60
2022-10-23T22:11:43.668Z,9.60
2022-10-23T22:14:10.821Z,9.60
2022-10-23T22:16:37.741Z,9.60
2022-10-23T22:19:04.958Z,9.60
2022-10-23T22:21:32.072Z,9.60
2022-10-23T22:24:00.092Z,9.60
2022-10-23T22:26:30.091Z,9.60
2022-10-23T22:29:00.410Z,9.60
2022-10-23T22:31:29.833Z,9.60
2022-10-23T22:33:57.238Z,9.70
2022-10-23T22:36:25.105Z,9.60
2022-10-23T22:38:52.200Z,9.60
2022-10-23T22:41:19.939Z,9.60
2022-10-23T22:43:46.906Z,9.60
2022-10-23T22:46:17.160Z,9.60
2022-10-23T22:48:44.814Z,9.60
2022-10-23T22:51:14.635Z,9.60
2022-10-23T22:53:42.243Z,9.60
2022-10-23T22:56:11.104Z,9.60
2022-10-23T22:58:38.015Z,9.60
2022-10-23T23:01:22.883Z,9.60
2022-10-23T23:03:50.392Z,9.60
2022-10-23T23:06:18.016Z,9.60
2022-10-23T23:08:45.295Z,9.60
2022-10-23T23:11:14.179Z,9.60
2022-10-23T23:13:41.584Z,9.70
2022-10-23T23:16:14.070Z,9.60
2022-10-23T23:18:40.861Z,9.60
2022-10-23T23:21:07.648Z,9.60
2022-10-23T23:23:34.564Z,9.50
2022-10-23T23:26:05.870Z,9.50
2022-10-23T23:28:32.729Z,9.50
2022-10-23T23:31:08.698Z,9.50
2022-10-23T23:33:35.680Z,9.50
2022-10-23T23:36:08.334Z,9.40
2022-10-23T23:38:36.310Z,9.40
2022-10-23T23:41:03.555Z,9.40
2022-10-23T23:43:30.879Z,9.40
2022-10-23T23:45:58.516Z,9.30
2022-10-23T23:48:26.165Z,9.30
2022-10-23T23:50:52.952Z,9.30
2022-10-23T23:53:19.808Z,9.30
2022-10-23T23:55:46.677Z,9.30
2022-10-23T23:58:13.793Z,9.30
